Terminal Aerodrome Forecast
Issued by NWS Tulsa, OK

Home | Current Version | Previous Version | Text Only | Print | Product List | Glossary On
Versions: 1 2 3 4 5 6 7 8 9 10 11 12
000
FTUS44 KTSA 031120
TAFTUL
TAF
KTUL 031120Z 0312/0412 06005KT P6SM VCSH BKN060
     FM031500 09005KT 6SM -RA OVC040
      TEMPO 0316/0320 10006KT 5SM -RA BKN025
     FM032000 10007KT 4SM -RA BR OVC012
     FM040000 10005KT 2SM -RA BR OVC007=

USA.gov is the U.S. government's official web portal to all federal, state and local government web resources and services.